首页
METAR-TAF:

METAR-TAF

机场 :

Terrace, 不列颠哥伦比亚, 加拿大

纬度: 54-28N, 经度: 128-35W, 海拔: 217米

当前天气观测

该预报发布于31分钟前的00:00 UTC
风速4节,风向南转西南
温度 14°C
湿度 72%
气压 1013 hPa
能見度: 32.2公里
少量云层高于4700英尺, 塔状积云.
散云层高于7500英尺
多云层高于24000英尺

METAR: CYXT 220000Z 20004KT 20SM FEW047TCU SCT075 BKN240 14/09 A2992 RMK TCU2AC2CI2 SLP139 DENSITY ALT 800FT

时间: 17:31 (00:31 UTC)

预报

该预报发布于5小时和48分钟前的18:43 UTC
预报有效从21日的 19点(UTC)到 22日的 07点(UTC)
风速3节,风向多变
能見度: 10公里
散云层高于300英尺
多云层高于1200英尺
短暂存在
从 21日的 19点(UTC)到 21日的 21点(UTC)
能見度: 4.8公里
多云层高于300英尺
轻雾
从 21日的 2100点(UTC)
风速5节,风向西转西南
能見度: 10公里
散云层高于1200英尺
多云层高于3000英尺
短暂存在
从 21日的 21点(UTC)到 21日的 23点(UTC)
能見度: 4.8公里
小阵雨, 轻雾
从 21日的 2300点(UTC)
风速3节,风向多变
能見度: 10公里
少量云层高于1200英尺
散云层高于3000英尺
从 22日的 0500点(UTC)
风速6节,风向
能見度: 10公里
散云层高于600英尺
多云层高于3000英尺
短暂存在
从 22日的 05点(UTC)到 22日的 07点(UTC)
能見度: 1.6公里
多云层高于600英尺
轻雾

TAF: CYXT 211843Z 2119/2207 VRB03KT P6SM SCT003 BKN012 TEMPO 2119/2121 3SM BR BKN003 FM212100 25005KT P6SM SCT012 BKN030 TEMPO 2121/2123 3SM -SHRA BR FM212300 VRB03KT P6SM FEW012 SCT030 FM220500 17006KT P6SM SCT006 BKN030 TEMPO 2205/2207 1SM BR BKN006 RMK NXT FCST BY 220100Z

超过4000个机场的气象观测和天气预报(METAR&TAF报告)。

可查询的气象台以黄色和红色小点在地图上表示。

将鼠标移到小点上方,可查看气象台名称。

然后点击查看天气观测和预报。

如需切换地图:点击带黑十字的绿色按钮放大地图;点击带横线的绿色按钮缩小地图;或者点击绿色箭头查看邻近地区的地图。


METAR-TAF: